Time;durP1;ratioP1;P1;durP2;ratioP2;P2;SDS_P1;SDS_P2;PMS_P1;PMS_P2;Temp;Humidity;BMP_temperature;BMP_pressure;BME280_temperature;BME280_humidity;BME280_pressure;Samples;Min_cycle;Max_cycle;Signal;HPM_P1;HPM_P2
2021/06/08 00:00:35;;;;;;;11.77;8.30;;;;;;;19.04;65.84;97758.28;5031971;28;20028;-77
2021/06/08 00:03:02;;;;;;;10.02;8.82;;;;;;;18.94;66.37;97755.78;5040812;28;20262;-77
2021/06/08 00:05:28;;;;;;;9.77;8.60;;;;;;;18.98;65.88;97756.00;5030718;28;20051;-77
2021/06/08 00:07:53;;;;;;;9.88;8.85;;;;;;;18.93;65.87;97762.13;5034909;28;20040;-77
2021/06/08 00:10:19;;;;;;;13.10;9.30;;;;;;;18.94;66.24;97761.06;5034723;28;20125;-77
2021/06/08 00:12:45;;;;;;;11.45;8.70;;;;;;;18.94;66.13;97766.34;5021346;28;20546;-77
2021/06/08 00:15:11;;;;;;;11.00;9.32;;;;;;;18.88;66.04;97755.06;5042369;28;20095;-77
2021/06/08 00:17:37;;;;;;;11.90;9.85;;;;;;;18.90;66.04;97763.50;5030527;28;20036;-77
2021/06/08 00:20:05;;;;;;;12.90;9.82;;;;;;;18.95;65.92;97761.84;5030322;28;20430;-77
2021/06/08 00:22:30;;;;;;;10.02;8.30;;;;;;;19.02;65.46;97762.25;5034303;28;20442;-77
2021/06/08 00:24:56;;;;;;;9.35;8.35;;;;;;;18.99;65.66;97760.22;5029074;28;20048;-77
2021/06/08 00:27:22;;;;;;;10.23;8.38;;;;;;;18.97;65.62;97757.84;5035113;28;20032;-77
2021/06/08 00:29:47;;;;;;;9.98;8.20;;;;;;;19.01;65.44;97763.34;5018592;28;20438;-77
2021/06/08 00:32:13;;;;;;;9.68;8.68;;;;;;;19.00;65.63;97759.13;5042614;28;20036;-77
2021/06/08 00:34:38;;;;;;;9.70;8.50;;;;;;;18.95;65.49;97764.47;5031246;28;20475;-78
2021/06/08 00:37:03;;;;;;;11.50;9.30;;;;;;;18.85;65.65;97760.91;5032486;28;20475;-77
2021/06/08 00:39:29;;;;;;;9.50;8.60;;;;;;;18.82;65.78;97748.28;5018355;28;20032;-77
2021/06/08 00:41:54;;;;;;;11.30;9.18;;;;;;;18.74;65.93;97746.25;5013273;28;20469;-77
2021/06/08 00:44:20;;;;;;;9.30;8.27;;;;;;;18.74;65.80;97751.50;5033853;28;20407;-77
2021/06/08 00:46:47;;;;;;;10.02;8.52;;;;;;;18.71;65.95;97744.97;5051197;28;20101;-77
2021/06/08 00:49:13;;;;;;;9.45;8.55;;;;;;;18.74;65.94;97748.09;5034775;28;20052;-77
2021/06/08 00:51:38;;;;;;;9.50;8.50;;;;;;;18.65;65.80;97743.44;5034045;28;20078;-77
2021/06/08 00:54:14;;;;;;;10.63;8.23;;;;;;;18.56;66.53;97739.06;5033319;28;20037;-77
2021/06/08 00:56:42;;;;;;;10.63;9.05;;;;;;;18.52;66.52;97747.56;5018190;28;20071;-77
2021/06/08 00:59:08;;;;;;;8.25;7.45;;;;;;;18.59;66.21;97743.78;5007381;28;20578;-77
2021/06/08 01:01:34;;;;;;;11.13;8.80;;;;;;;18.53;66.11;97728.03;5019530;28;20625;-77
2021/06/08 01:04:08;;;;;;;10.32;9.00;;;;;;;18.36;66.49;97743.53;5043005;28;20033;-77
2021/06/08 01:06:35;;;;;;;11.77;10.50;;;;;;;18.37;67.16;97739.03;5046255;28;20244;-77
2021/06/08 01:09:02;;;;;;;13.00;10.07;;;;;;;18.16;68.16;97744.53;5036151;28;20038;-77
2021/06/08 01:11:27;;;;;;;12.63;9.63;;;;;;;18.14;67.97;97736.09;5016897;28;20605;-77
2021/06/08 01:13:53;;;;;;;11.68;9.88;;;;;;;18.18;67.78;97729.22;5050109;28;20071;-77
2021/06/08 01:16:18;;;;;;;10.77;9.68;;;;;;;18.22;67.89;97732.09;5033055;28;20067;-77
2021/06/08 01:18:44;;;;;;;10.77;9.68;;;;;;;18.20;67.79;97731.56;5029213;28;20036;-77
2021/06/08 01:21:10;;;;;;;11.95;10.20;;;;;;;18.10;67.99;97722.72;5027277;28;20487;-77
2021/06/08 01:23:36;;;;;;;13.75;10.07;;;;;;;18.09;68.06;97721.13;5017282;28;20032;-77
2021/06/08 01:26:03;;;;;;;12.50;10.05;;;;;;;18.20;67.78;97731.56;5044961;28;20051;-77
2021/06/08 01:28:30;;;;;;;11.60;9.95;;;;;;;18.13;67.89;97726.66;5068858;28;20074;-77
2021/06/08 01:30:56;;;;;;;13.10;10.98;;;;;;;18.15;67.77;97732.41;5028141;28;20021;-77
2021/06/08 01:33:23;;;;;;;13.02;10.73;;;;;;;18.17;67.55;97726.88;5033832;28;20090;-77
2021/06/08 01:35:50;;;;;;;12.40;10.50;;;;;;;18.22;67.55;97732.09;5026806;28;20257;-77
2021/06/08 01:38:16;;;;;;;14.20;10.20;;;;;;;18.24;67.39;97737.88;5017085;28;20505;-77
2021/06/08 01:40:43;;;;;;;12.40;10.82;;;;;;;18.16;67.29;97731.34;5034368;28;20036;-77
2021/06/08 01:43:24;;;;;;;13.23;9.60;;;;;;;18.20;67.41;97737.63;5007429;28;20479;-77
2021/06/08 01:45:51;;;;;;;14.60;10.35;;;;;;;18.18;67.60;97738.97;5015861;28;20119;-77
2021/06/08 01:48:17;;;;;;;12.93;9.88;;;;;;;18.20;67.42;97753.44;5034328;28;20037;-78
2021/06/08 01:50:48;;;;;;;10.38;8.95;;;;;;;18.22;67.17;97740.00;5012838;28;20131;-78
2021/06/08 01:53:38;;;;;;;11.45;8.30;;;;;;;18.01;67.30;97750.75;5028331;28;20074;-78
2021/06/08 01:56:09;;;;;;;9.55;8.32;;;;;;;18.12;66.81;97762.75;5033954;28;20550;-78
2021/06/08 01:58:45;;;;;;;10.13;8.38;;;;;;;18.15;66.74;97762.19;5052369;28;20505;-78
2021/06/08 02:01:30;;;;;;;9.15;7.88;;;;;;;17.89;67.57;97753.75;5052333;28;20051;-77
2021/06/08 02:04:06;;;;;;;12.90;9.27;;;;;;;17.84;67.50;97748.50;5017376;28;20179;-78
2021/06/08 02:06:46;;;;;;;11.52;10.25;;;;;;;17.90;67.71;97763.22;5034571;28;20028;-78
2021/06/08 02:09:22;;;;;;;10.48;9.35;;;;;;;17.89;67.64;97753.75;5035830;28;20058;-78
2021/06/08 02:12:02;;;;;;;11.90;9.52;;;;;;;17.89;67.92;97766.13;5012645;28;20024;-77
2021/06/08 02:14:36;;;;;;;11.07;9.68;;;;;;;17.93;67.96;97756.59;5003531;28;20033;-78
2021/06/08 02:17:07;;;;;;;9.82;8.75;;;;;;;18.04;67.59;97771.25;5015221;28;20100;-78
2021/06/08 02:19:35;;;;;;;12.13;9.70;;;;;;;18.04;67.64;97765.19;5018829;28;20103;-78
2021/06/08 02:22:02;;;;;;;12.68;9.52;;;;;;;18.10;67.52;97762.25;5031265;28;20036;-78
2021/06/08 02:24:31;;;;;;;13.75;11.15;;;;;;;18.17;67.48;97767.19;5017821;28;20065;-78
2021/06/08 02:27:01;;;;;;;11.13;9.93;;;;;;;18.09;67.55;97767.78;5051008;28;20076;-78
2021/06/08 02:29:26;;;;;;;11.13;10.00;;;;;;;18.23;67.57;97770.53;5051286;28;20369;-77
2021/06/08 02:31:54;;;;;;;9.30;8.40;;;;;;;18.20;67.56;97769.28;5050742;28;20079;-78
2021/06/08 02:34:20;;;;;;;11.20;9.30;;;;;;;18.26;67.71;97767.34;5026722;28;20036;-78
2021/06/08 02:36:46;;;;;;;11.25;9.27;;;;;;;18.23;67.56;97767.91;5033261;28;20491;-77
2021/06/08 02:39:12;;;;;;;11.32;9.38;;;;;;;18.21;67.54;97764.78;5032345;28;20039;-77
2021/06/08 02:41:39;;;;;;;10.18;9.10;;;;;;;18.24;67.54;97766.84;5031509;28;20043;-77
2021/06/08 02:44:05;;;;;;;12.70;11.32;;;;;;;18.25;67.40;97757.88;5049941;28;20395;-78
2021/06/08 02:46:30;;;;;;;13.98;11.88;;;;;;;18.25;67.37;97768.41;5049395;28;20190;-77
2021/06/08 02:48:56;;;;;;;13.15;11.00;;;;;;;18.19;67.59;97770.31;5026800;28;20115;-78
2021/06/08 02:51:22;;;;;;;14.40;11.80;;;;;;;18.16;67.70;97760.34;5031593;28;20036;-77
2021/06/08 02:53:48;;;;;;;13.85;11.38;;;;;;;18.19;67.85;97777.44;5048971;28;20028;-77
2021/06/08 02:56:14;;;;;;;14.70;12.00;;;;;;;18.09;67.84;97763.28;5003493;28;20055;-77
2021/06/08 02:58:42;;;;;;;12.43;10.75;;;;;;;18.03;67.58;97769.69;5067531;28;20028;-77
2021/06/08 03:01:08;;;;;;;11.70;9.85;;;;;;;18.12;67.57;97775.91;5032383;28;20056;-77
2021/06/08 03:03:36;;;;;;;10.93;9.10;;;;;;;18.07;67.62;97770.69;5028491;28;20036;-77
2021/06/08 03:06:05;;;;;;;12.88;10.25;;;;;;;18.04;67.77;97768.59;5038783;28;20040;-77
2021/06/08 03:08:40;;;;;;;13.07;10.88;;;;;;;17.87;68.27;97771.69;5032527;28;20088;-77
2021/06/08 03:11:08;;;;;;;11.90;10.23;;;;;;;17.97;68.35;97776.06;5015952;28;20251;-77
2021/06/08 03:13:35;;;;;;;14.57;11.25;;;;;;;17.91;68.71;97761.38;5048874;28;20029;-77
2021/06/08 03:16:02;;;;;;;14.52;11.65;;;;;;;17.99;68.18;97763.38;5031617;28;20369;-77
2021/06/08 03:18:29;;;;;;;14.60;11.73;;;;;;;17.93;68.66;97761.88;5032208;28;20024;-77
2021/06/08 03:21:00;;;;;;;14.98;11.70;;;;;;;17.91;68.60;97762.16;5032060;28;20127;-77
2021/06/08 03:23:29;;;;;;;14.32;12.05;;;;;;;17.83;69.17;97767.97;5028941;28;20494;-77
2021/06/08 03:25:57;;;;;;;16.00;12.13;;;;;;;17.77;69.53;97758.56;5047658;28;20064;-77
2021/06/08 03:28:25;;;;;;;17.25;12.65;;;;;;;17.71;69.84;97760.44;5032257;28;20036;-77
2021/06/08 03:30:51;;;;;;;18.92;13.35;;;;;;;17.86;69.59;97761.38;5007770;28;20025;-77
2021/06/08 03:33:17;;;;;;;17.70;13.48;;;;;;;17.94;69.23;97761.59;5026728;28;20044;-78
2021/06/08 03:35:43;;;;;;;18.02;13.75;;;;;;;17.95;69.29;97767.66;5036956;28;20029;-77
2021/06/08 03:38:09;;;;;;;18.27;14.23;;;;;;;18.02;69.11;97770.75;5010367;28;20029;-78
2021/06/08 03:40:35;;;;;;;20.63;16.52;;;;;;;18.00;69.50;97759.69;5032793;28;20686;-78
2021/06/08 03:43:01;;;;;;;20.73;15.57;;;;;;;18.04;69.56;97768.59;5035854;28;20020;-77
2021/06/08 03:45:26;;;;;;;20.42;15.73;;;;;;;18.01;69.28;97753.38;5035827;28;20475;-77
2021/06/08 03:47:54;;;;;;;21.92;15.52;;;;;;;17.90;69.92;97767.69;5052816;28;20032;-77
2021/06/08 03:50:19;;;;;;;19.55;15.73;;;;;;;17.90;70.35;97770.34;5031153;28;20449;-78
2021/06/08 03:52:50;;;;;;;21.15;15.35;;;;;;;17.92;69.86;97755.84;5013517;28;20059;-78
2021/06/08 03:55:25;;;;;;;22.40;15.95;;;;;;;17.82;70.23;97768.25;5036489;28;20037;-77
2021/06/08 03:57:54;;;;;;;19.70;15.85;;;;;;;18.05;69.57;97772.81;5037707;28;20040;-78
2021/06/08 04:00:22;;;;;;;22.20;16.77;;;;;;;18.08;69.47;97772.28;5054081;28;20406;-78
2021/06/08 04:02:51;;;;;;;21.48;15.25;;;;;;;18.20;69.42;97776.38;5049479;28;20024;-77
2021/06/08 04:05:17;;;;;;;20.50;15.48;;;;;;;18.28;69.03;97776.56;5035324;28;20036;-78
2021/06/08 04:07:43;;;;;;;18.95;14.63;;;;;;;18.31;69.08;97780.50;5037578;28;20048;-78
2021/06/08 04:10:13;;;;;;;20.13;14.85;;;;;;;18.30;68.95;97768.34;5037219;28;20124;-78
2021/06/08 04:12:38;;;;;;;20.42;15.32;;;;;;;18.25;69.25;97768.41;5034999;28;20082;-78
2021/06/08 04:15:05;;;;;;;22.77;16.42;;;;;;;18.25;69.54;97774.50;5023027;28;20031;-78
2021/06/08 04:17:32;;;;;;;22.80;15.95;;;;;;;18.23;69.59;97768.72;5044445;28;20464;-78
2021/06/08 04:19:58;;;;;;;24.58;17.63;;;;;;;18.31;69.57;97777.84;5050669;28;20031;-78
2021/06/08 04:22:29;;;;;;;25.52;17.90;;;;;;;18.14;69.62;97779.06;5034877;28;20044;-78
2021/06/08 04:24:54;;;;;;;24.15;18.15;;;;;;;18.25;69.62;97771.03;5038615;28;20025;-77
2021/06/08 04:27:27;;;;;;;26.55;18.65;;;;;;;18.18;69.55;97776.69;5038558;28;20112;-78
2021/06/08 04:29:53;;;;;;;23.92;18.83;;;;;;;18.30;69.73;97773.63;5038435;28;20042;-78
2021/06/08 04:32:19;;;;;;;24.45;16.88;;;;;;;18.40;69.50;97783.28;5015478;28;20115;-78
2021/06/08 04:34:46;;;;;;;23.48;17.35;;;;;;;18.39;69.32;97779.88;5052389;28;20032;-78
2021/06/08 04:37:12;;;;;;;22.83;18.52;;;;;;;18.42;69.54;97779.31;5055652;28;20423;-78
2021/06/08 04:39:38;;;;;;;25.65;18.50;;;;;;;18.41;69.45;97777.75;5055631;28;20025;-79
2021/06/08 04:42:05;;;;;;;24.73;18.98;;;;;;;18.48;69.53;97778.19;5032561;28;20029;-79
2021/06/08 04:44:30;;;;;;;24.30;17.50;;;;;;;18.43;69.57;97775.59;5038158;28;20229;-79
2021/06/08 04:46:58;;;;;;;21.15;17.05;;;;;;;18.50;69.30;97778.69;5032612;28;20036;-79
2021/06/08 04:49:23;;;;;;;23.02;16.83;;;;;;;18.55;69.06;97779.72;5015922;28;20035;-78
2021/06/08 04:51:49;;;;;;;21.95;17.67;;;;;;;18.55;69.26;97779.72;5055232;28;20028;-78
2021/06/08 04:54:21;;;;;;;24.13;17.98;;;;;;;18.38;69.39;97777.53;5037336;28;20074;-79
2021/06/08 04:56:46;;;;;;;22.23;16.55;;;;;;;18.56;69.27;97776.00;5038844;28;20046;-78
2021/06/08 04:59:16;;;;;;;23.63;17.30;;;;;;;18.52;69.22;97773.13;5054922;28;20115;-79
2021/06/08 05:01:42;;;;;;;20.05;16.00;;;;;;;18.71;68.40;97778.44;5016909;28;20579;-79
2021/06/08 05:04:11;;;;;;;21.17;16.50;;;;;;;18.64;68.66;97778.00;5029147;28;20431;-79
2021/06/08 05:06:40;;;;;;;21.38;16.25;;;;;;;18.70;68.42;97779.53;5019651;28;20486;-79
2021/06/08 05:09:11;;;;;;;20.73;15.40;;;;;;;18.65;68.83;97784.88;5020823;28;20087;-79
2021/06/08 05:11:45;;;;;;;23.60;17.85;;;;;;;18.62;68.81;97786.22;5046893;28;20196;-78
2021/06/08 05:14:12;;;;;;;20.35;15.73;;;;;;;18.80;68.52;97791.81;5037034;28;20538;-78
2021/06/08 05:16:39;;;;;;;21.13;15.77;;;;;;;18.86;68.36;97798.63;5020989;28;20098;-79
2021/06/08 05:19:07;;;;;;;19.48;15.48;;;;;;;18.81;68.44;97801.31;5037272;28;20032;-78
2021/06/08 05:21:32;;;;;;;21.20;16.27;;;;;;;18.79;68.24;97803.44;5047399;28;20040;-78
2021/06/08 05:23:58;;;;;;;22.38;15.65;;;;;;;18.68;68.64;97797.50;5028099;28;20382;-79
2021/06/08 05:26:24;;;;;;;21.38;16.52;;;;;;;18.75;68.14;97800.59;5072796;28;20527;-79
2021/06/08 05:28:50;;;;;;;22.65;16.17;;;;;;;18.74;68.50;97804.28;5038109;28;20035;-79
2021/06/08 05:31:19;;;;;;;24.23;17.83;;;;;;;18.66;68.50;97804.88;5072303;28;20028;-79
2021/06/08 05:33:44;;;;;;;22.13;17.00;;;;;;;18.73;68.58;97800.09;5038007;28;20025;-79
2021/06/08 05:36:10;;;;;;;19.63;14.98;;;;;;;18.83;68.69;97807.09;5018812;28;20140;-79
2021/06/08 05:38:42;;;;;;;22.58;16.42;;;;;;;18.70;68.45;97803.28;5054345;28;20029;-79
2021/06/08 05:41:09;;;;;;;22.88;15.80;;;;;;;18.80;68.49;97797.06;5050884;28;20032;-79
2021/06/08 05:43:35;;;;;;;19.90;15.55;;;;;;;18.87;68.43;97794.94;5021206;28;20039;-79
2021/06/08 05:46:03;;;;;;;22.40;16.67;;;;;;;18.74;68.56;97791.09;5030570;28;20080;-79
2021/06/08 05:48:28;;;;;;;23.70;17.25;;;;;;;18.82;68.48;97802.88;5049401;28;20031;-79
2021/06/08 05:50:57;;;;;;;23.20;16.55;;;;;;;18.70;68.73;97801.41;5031731;28;20354;-79
2021/06/08 05:53:24;;;;;;;20.10;16.58;;;;;;;18.88;68.42;97807.03;5014050;28;20031;-79
2021/06/08 05:55:50;;;;;;;22.27;17.08;;;;;;;18.86;68.60;97802.03;5054242;28;20513;-78
2021/06/08 05:58:16;;;;;;;21.00;16.88;;;;;;;18.89;68.78;97796.22;5012001;28;20569;-78
2021/06/08 06:00:42;;;;;;;23.88;17.80;;;;;;;18.91;69.04;97798.56;5037517;28;20502;-79
2021/06/08 06:03:08;;;;;;;22.23;16.45;;;;;;;18.94;68.69;97803.28;5016779;28;20047;-79
2021/06/08 06:05:37;;;;;;;22.88;16.77;;;;;;;18.82;68.89;97801.06;5048313;28;20543;-79
2021/06/08 06:08:04;;;;;;;23.88;17.08;;;;;;;18.95;68.57;97810.13;5020802;28;20049;-78
2021/06/08 06:10:30;;;;;;;24.55;17.25;;;;;;;18.93;68.91;97803.56;5037112;28;20113;-79
2021/06/08 06:12:56;;;;;;;22.58;17.00;;;;;;;18.98;68.93;97799.00;5037495;28;20013;-79
2021/06/08 06:15:23;;;;;;;24.25;17.73;;;;;;;19.00;68.59;97807.41;5046755;28;20099;-78
2021/06/08 06:17:48;;;;;;;23.45;18.17;;;;;;;19.08;68.98;97809.44;5026587;28;20511;-79
2021/06/08 06:20:15;;;;;;;22.25;17.08;;;;;;;19.14;68.79;97814.63;5019037;28;20128;-78
2021/06/08 06:22:41;;;;;;;26.63;16.95;;;;;;;19.16;68.81;97813.31;5020666;28;20423;-78
2021/06/08 06:25:09;;;;;;;24.77;17.73;;;;;;;19.02;68.92;97809.78;5023660;28;20490;-78
2021/06/08 06:27:41;;;;;;;23.65;18.00;;;;;;;18.85;68.96;97808.41;5031194;28;20028;-78
2021/06/08 06:30:09;;;;;;;24.83;19.45;;;;;;;19.02;69.38;97810.56;5030277;28;20032;-78
2021/06/08 06:32:35;;;;;;;23.65;18.02;;;;;;;19.13;69.19;97808.59;5036463;28;20047;-78
2021/06/08 06:35:02;;;;;;;26.10;19.08;;;;;;;19.19;69.15;97815.38;5049123;28;20037;-78
2021/06/08 06:37:28;;;;;;;24.45;18.70;;;;;;;19.22;68.86;97814.78;5053799;28;20391;-78
2021/06/08 06:39:55;;;;;;;24.20;19.42;;;;;;;19.16;68.97;97817.78;5034092;28;20037;-79
2021/06/08 06:42:23;;;;;;;24.95;19.50;;;;;;;19.14;68.80;97812.81;5053086;28;20039;-78
2021/06/08 06:44:49;;;;;;;25.77;19.75;;;;;;;19.26;68.10;97815.81;5053776;28;20125;-78
2021/06/08 06:47:16;;;;;;;24.85;18.73;;;;;;;19.14;68.59;97823.38;5036794;28;20075;-78
2021/06/08 06:49:42;;;;;;;23.52;18.50;;;;;;;19.41;68.40;97829.84;5021261;28;20360;-78
2021/06/08 06:52:09;;;;;;;22.40;17.80;;;;;;;19.54;67.87;97831.00;5036025;28;20038;-78
2021/06/08 06:54:35;;;;;;;24.48;18.50;;;;;;;19.52;67.72;97828.66;5019435;28;20043;-78
2021/06/08 06:57:01;;;;;;;22.58;17.90;;;;;;;19.55;67.62;97836.00;5029662;28;20027;-79
2021/06/08 06:59:26;;;;;;;23.33;18.30;;;;;;;19.54;67.54;97831.78;5053145;28;20032;-78
2021/06/08 07:01:52;;;;;;;20.88;16.75;;;;;;;19.60;67.62;97841.22;5030967;28;20036;-78
2021/06/08 07:04:21;;;;;;;21.55;17.15;;;;;;;19.49;67.55;97839.78;5048441;28;20048;-78
2021/06/08 07:06:47;;;;;;;23.83;18.42;;;;;;;19.63;67.40;97842.50;5036531;28;20475;-78
2021/06/08 07:09:12;;;;;;;22.90;17.35;;;;;;;19.61;67.22;97840.13;5036515;28;20035;-78
2021/06/08 07:11:38;;;;;;;22.88;17.73;;;;;;;19.57;67.23;97836.50;5019005;28;20048;-78
2021/06/08 07:14:04;;;;;;;21.30;17.23;;;;;;;19.62;67.47;97841.72;5052422;28;20124;-78
2021/06/08 07:16:32;;;;;;;19.95;17.27;;;;;;;19.70;67.56;97834.19;5046463;28;20033;-78
2021/06/08 07:18:58;;;;;;;22.17;17.80;;;;;;;19.82;66.68;97837.22;5055754;28;20467;-78
2021/06/08 07:21:24;;;;;;;19.88;17.20;;;;;;;19.87;65.99;97833.72;5051043;28;20032;-78
2021/06/08 07:23:53;;;;;;;21.10;17.27;;;;;;;19.78;66.60;97833.59;5050838;28;20028;-78
2021/06/08 07:26:18;;;;;;;22.63;18.50;;;;;;;19.76;66.97;97833.09;5030575;28;20105;-78
2021/06/08 07:28:47;;;;;;;24.30;18.70;;;;;;;19.70;67.28;97839.50;5017346;28;20059;-78
2021/06/08 07:31:20;;;;;;;23.50;17.67;;;;;;;19.74;67.47;97840.47;5036743;28;20031;-78
2021/06/08 07:33:50;;;;;;;21.13;17.45;;;;;;;19.99;66.69;97844.63;5047016;28;20121;-78
2021/06/08 07:36:20;;;;;;;22.25;18.60;;;;;;;20.10;66.51;97847.88;5051397;28;20311;-78
2021/06/08 07:38:56;;;;;;;21.70;17.65;;;;;;;20.01;66.70;97845.91;5056128;28;20424;-78
2021/06/08 07:41:36;;;;;;;20.77;17.45;;;;;;;19.92;66.79;97837.06;5073427;28;20052;-78
2021/06/08 07:44:04;;;;;;;23.73;19.10;;;;;;;20.13;65.96;97848.06;5038005;28;20059;-78
2021/06/08 07:46:30;;;;;;;22.58;18.40;;;;;;;20.25;66.16;97850.25;5022008;28;20031;-78
2021/06/08 07:48:57;;;;;;;23.15;18.95;;;;;;;20.28;66.11;97847.03;5039406;28;20115;-78
2021/06/08 07:51:23;;;;;;;24.30;18.38;;;;;;;20.28;65.66;97854.97;5013654;28;20083;-78
2021/06/08 07:53:50;;;;;;;22.75;18.70;;;;;;;20.30;65.92;97852.81;5042775;28;20059;-78
2021/06/08 07:56:16;;;;;;;23.42;20.20;;;;;;;20.47;65.79;97846.19;5032381;28;20033;-78
2021/06/08 07:58:42;;;;;;;20.98;16.88;;;;;;;20.55;65.87;97846.28;5009844;28;20039;-78
2021/06/08 08:01:08;;;;;;;23.20;18.00;;;;;;;20.50;65.86;97845.63;5031812;28;20398;-78
2021/06/08 08:03:37;;;;;;;23.55;19.20;;;;;;;20.50;66.11;97840.31;5027052;28;20037;-78
2021/06/08 08:06:05;;;;;;;21.13;18.27;;;;;;;20.49;65.45;97844.03;5047247;28;20036;-78
2021/06/08 08:08:31;;;;;;;21.05;17.75;;;;;;;20.63;65.78;97849.38;5003162;28;20502;-78
2021/06/08 08:10:58;;;;;;;20.52;17.88;;;;;;;20.72;66.17;97848.41;5025660;28;20383;-78
2021/06/08 08:13:26;;;;;;;20.85;17.90;;;;;;;20.62;65.61;97848.59;5034162;28;20040;-77
2021/06/08 08:15:53;;;;;;;20.58;17.77;;;;;;;20.61;65.55;97848.84;5008400;28;20037;-78
2021/06/08 08:18:22;;;;;;;24.02;18.55;;;;;;;20.57;66.18;97843.38;5012092;28;20028;-77
2021/06/08 08:20:55;;;;;;;25.02;18.05;;;;;;;20.61;66.07;97846.19;5047295;28;20032;-77
2021/06/08 08:23:21;;;;;;;21.55;17.30;;;;;;;20.84;65.24;97844.50;5070044;28;20028;-78
2021/06/08 08:25:47;;;;;;;20.08;17.08;;;;;;;20.81;65.02;97843.19;5037237;28;20039;-78
2021/06/08 08:28:13;;;;;;;20.33;18.13;;;;;;;20.81;65.62;97845.84;5024682;28;20044;-78
2021/06/08 08:30:40;;;;;;;22.25;18.80;;;;;;;20.71;65.20;97833.59;5034000;28;20032;-77
2021/06/08 08:33:06;;;;;;;21.50;17.58;;;;;;;20.83;65.31;97842.91;5032718;28;20083;-78
2021/06/08 08:35:36;;;;;;;22.50;17.70;;;;;;;20.86;65.16;97844.97;5024154;28;20037;-78
2021/06/08 08:38:02;;;;;;;20.88;17.70;;;;;;;20.99;64.75;97836.25;5047701;28;20582;-78
2021/06/08 08:40:28;;;;;;;21.65;17.20;;;;;;;21.09;63.81;97825.41;5015242;28;20079;-77
2021/06/08 08:42:54;;;;;;;19.35;16.92;;;;;;;21.19;63.82;97831.59;5014562;28;20083;-78
2021/06/08 08:45:21;;;;;;;19.08;16.42;;;;;;;21.06;64.12;97833.16;5019465;28;20112;-77
2021/06/08 08:47:47;;;;;;;19.98;16.50;;;;;;;20.94;64.17;97825.75;5045864;28;20032;-78
2021/06/08 08:50:16;;;;;;;19.15;17.05;;;;;;;20.83;64.11;97832.31;5032576;28;20414;-77
2021/06/08 08:52:46;;;;;;;20.70;17.02;;;;;;;20.89;64.51;97836.44;5011707;28;20040;-77
2021/06/08 08:55:12;;;;;;;19.52;16.88;;;;;;;20.92;64.66;97831.34;5035528;28;20028;-78
2021/06/08 08:57:40;;;;;;;18.08;16.13;;;;;;;21.02;64.42;97819.75;5035628;28;20044;-77
2021/06/08 09:00:06;;;;;;;18.88;16.75;;;;;;;21.10;64.39;97827.00;5015955;28;20085;-77
2021/06/08 09:02:32;;;;;;;19.67;16.45;;;;;;;21.30;64.50;97830.28;5045250;28;20036;-77
2021/06/08 09:05:03;;;;;;;21.05;17.30;;;;;;;21.74;63.03;97831.44;5026141;28;20040;-77
2021/06/08 09:07:30;;;;;;;18.23;15.50;;;;;;;22.30;62.35;97837.28;5024121;28;20027;-77
2021/06/08 09:09:57;;;;;;;18.23;16.30;;;;;;;22.28;62.34;97836.00;5016465;28;20059;-77
2021/06/08 09:12:24;;;;;;;18.70;15.98;;;;;;;22.55;61.66;97825.22;5046606;28;20483;-78
2021/06/08 09:14:50;;;;;;;18.45;15.65;;;;;;;22.77;60.53;97832.34;5026684;28;20483;-78
2021/06/08 09:17:20;;;;;;;18.08;14.60;;;;;;;23.17;60.55;97834.94;5050372;28;20037;-78
2021/06/08 09:19:46;;;;;;;16.70;14.75;;;;;;;23.29;59.17;97836.22;5018723;28;20039;-77
2021/06/08 09:22:14;;;;;;;18.27;15.35;;;;;;;23.18;58.54;97831.22;5035056;28;20029;-77
2021/06/08 09:24:44;;;;;;;17.90;16.00;;;;;;;22.90;58.85;97835.94;5015258;28;20547;-77
2021/06/08 09:27:11;;;;;;;16.92;14.35;;;;;;;23.04;59.61;97835.06;5012082;28;20032;-78
2021/06/08 09:29:39;;;;;;;17.33;14.75;;;;;;;23.12;59.07;97836.97;5012964;28;20048;-79
2021/06/08 09:32:22;;;;;;;15.85;14.13;;;;;;;23.06;58.68;97838.19;5038297;28;20033;-79
2021/06/08 09:34:58;;;;;;;15.98;14.35;;;;;;;23.24;58.08;97837.13;5064989;28;20123;-77
2021/06/08 09:37:43;;;;;;;16.48;14.77;;;;;;;23.10;57.59;97839.94;5024663;28;20037;-78
2021/06/08 09:40:17;;;;;;;16.10;14.45;;;;;;;23.35;58.85;97832.31;5011453;28;20398;-77
2021/06/08 09:42:45;;;;;;;15.52;13.85;;;;;;;23.49;57.36;97840.13;5063097;28;20063;-77
2021/06/08 09:45:18;;;;;;;15.55;14.02;;;;;;;23.74;57.66;97841.22;5016847;28;20032;-77
2021/06/08 09:47:44;;;;;;;16.10;14.48;;;;;;;23.82;57.09;97837.81;5035645;28;20036;-77
2021/06/08 09:50:40;;;;;;;15.35;13.85;;;;;;;23.78;57.47;97842.13;5034243;28;20038;-78
2021/06/08 09:53:26;;;;;;;14.60;12.95;;;;;;;23.89;55.93;97832.00;5007513;28;20033;-77
2021/06/08 09:56:09;;;;;;;13.73;12.18;;;;;;;24.33;56.52;97838.00;5018171;28;20129;-77
2021/06/08 09:58:44;;;;;;;14.98;13.05;;;;;;;24.24;55.11;97843.34;5029386;28;20506;-77
2021/06/08 10:01:27;;;;;;;14.05;12.65;;;;;;;24.14;55.31;97842.91;5050371;28;20036;-77
2021/06/08 10:04:00;;;;;;;13.95;12.57;;;;;;;23.84;55.74;97840.16;5021431;28;20431;-77
2021/06/08 10:06:34;;;;;;;14.13;12.68;;;;;;;23.77;56.13;97839.78;5032751;28;20093;-77
2021/06/08 10:09:02;;;;;;;14.20;12.73;;;;;;;24.12;55.56;97833.34;5045000;28;20074;-78
2021/06/08 10:11:33;;;;;;;14.18;12.82;;;;;;;24.31;55.64;97845.50;5041930;28;20041;-77
2021/06/08 10:14:19;;;;;;;13.13;11.73;;;;;;;24.28;54.46;97838.16;5036734;28;20032;-77
2021/06/08 10:16:59;;;;;;;13.13;11.77;;;;;;;24.21;55.87;97837.88;5020615;28;20041;-77
2021/06/08 10:19:29;;;;;;;13.50;12.25;;;;;;;24.14;55.32;97826.94;5047271;28;20570;-78
2021/06/08 10:21:55;;;;;;;14.30;12.80;;;;;;;24.23;55.42;97836.47;5017780;28;20485;-77
2021/06/08 10:24:23;;;;;;;13.95;12.52;;;;;;;23.95;55.14;97841.38;5012547;28;20021;-78
2021/06/08 10:26:52;;;;;;;13.93;12.55;;;;;;;24.00;54.86;97840.44;5047202;28;20028;-78
2021/06/08 10:29:23;;;;;;;14.18;12.07;;;;;;;24.22;53.83;97842.88;5050303;28;20024;-77
2021/06/08 10:31:49;;;;;;;14.52;12.90;;;;;;;24.25;54.65;97838.81;5022292;28;20043;-78
2021/06/08 10:34:15;;;;;;;13.85;12.50;;;;;;;24.37;55.11;97830.16;5030970;28;20768;-77
2021/06/08 10:36:42;;;;;;;14.50;12.77;;;;;;;24.54;55.40;97832.78;5046076;28;20064;-77
2021/06/08 10:39:14;;;;;;;13.52;12.10;;;;;;;24.56;54.20;97829.81;5026677;28;20051;-77
2021/06/08 10:41:42;;;;;;;12.93;11.65;;;;;;;24.61;53.92;97827.75;5033081;28;20028;-78
2021/06/08 10:44:08;;;;;;;13.75;12.35;;;;;;;24.85;54.74;97829.81;5046256;28;20033;-77
2021/06/08 10:46:48;;;;;;;14.18;12.68;;;;;;;24.51;54.91;97829.97;5033974;28;20040;-77
2021/06/08 10:49:13;;;;;;;13.80;12.43;;;;;;;24.73;54.57;97835.06;5033818;28;20032;-78
2021/06/08 10:51:39;;;;;;;14.77;13.02;;;;;;;24.65;53.96;97822.56;5015103;28;20442;-77
2021/06/08 10:54:17;;;;;;;13.40;12.00;;;;;;;24.77;55.14;97822.66;5015110;28;20094;-78
2021/06/08 10:56:58;;;;;;;14.82;13.32;;;;;;;24.56;53.60;97829.81;5034191;28;20040;-77
2021/06/08 10:59:35;;;;;;;14.30;12.80;;;;;;;24.26;53.74;97832.38;5034358;28;20086;-78
2021/06/08 11:02:00;;;;;;;14.57;13.18;;;;;;;24.49;53.84;97832.94;5029978;28;20450;-77
2021/06/08 11:04:46;;;;;;;15.50;13.90;;;;;;;24.01;53.83;97824.16;5001502;28;20025;-78
2021/06/08 11:07:12;;;;;;;16.25;13.15;;;;;;;24.64;53.88;97826.31;5010835;28;20107;-77
2021/06/08 11:09:39;;;;;;;14.27;12.90;;;;;;;24.75;54.11;97824.84;5020617;28;20301;-77
2021/06/08 11:12:07;;;;;;;15.85;14.05;;;;;;;24.60;53.21;97825.41;5000581;28;20115;-77
2021/06/08 11:14:37;;;;;;;14.48;12.98;;;;;;;24.97;53.23;97820.34;5056890;28;20045;-77
2021/06/08 11:17:05;;;;;;;16.70;12.98;;;;;;;25.00;51.94;97814.38;5042077;28;20044;-78
2021/06/08 11:19:49;;;;;;;15.10;13.65;;;;;;;24.76;52.94;97818.44;5014087;28;20089;-77
2021/06/08 11:22:17;;;;;;;16.15;14.45;;;;;;;25.08;52.03;97821.53;5008582;28;20040;-78
2021/06/08 11:24:48;;;;;;;14.98;13.50;;;;;;;24.97;52.12;97817.69;5012566;28;20029;-77